createdAt,value
2018-06-11T00:00:02.008Z,27.799999999999997
2018-06-11T00:02:02.219Z,28.299999999999997
2018-06-11T00:04:02.610Z,27.799999999999997
2018-06-11T00:06:02.628Z,27.799999999999997
2018-06-11T00:08:02.907Z,28.299999999999997
2018-06-11T00:10:03.272Z,27.799999999999997
2018-06-11T00:12:03.519Z,28.299999999999997
2018-06-11T00:14:03.259Z,27.200000000000003
2018-06-11T00:16:03.387Z,28.299999999999997
2018-06-11T00:18:03.882Z,27.799999999999997
2018-06-11T00:20:03.875Z,27.799999999999997
2018-06-11T00:22:03.855Z,28.299999999999997
2018-06-11T00:24:04.159Z,28.299999999999997
2018-06-11T00:26:04.096Z,28.299999999999997
2018-06-11T00:28:04.281Z,28.299999999999997
2018-06-11T00:30:04.558Z,28.299999999999997
2018-06-11T00:32:04.569Z,28.299999999999997
2018-06-11T00:34:04.699Z,28.299999999999997
2018-06-11T00:36:04.995Z,27.799999999999997
2018-06-11T00:38:05.199Z,27.200000000000003
2018-06-11T00:40:05.299Z,28.299999999999997
2018-06-11T00:42:05.403Z,28.299999999999997
2018-06-11T00:44:05.644Z,27.799999999999997
2018-06-11T00:46:05.658Z,27.799999999999997
2018-06-11T00:48:06.027Z,28.299999999999997
2018-06-11T00:50:05.962Z,27.200000000000003
2018-06-11T00:52:06.146Z,27.799999999999997
2018-06-11T00:54:06.256Z,27.799999999999997
2018-06-11T00:56:06.480Z,27.799999999999997
2018-06-11T00:58:06.752Z,27.799999999999997
2018-06-11T01:00:06.914Z,27.799999999999997
2018-06-11T01:02:07.046Z,27.799999999999997
2018-06-11T01:04:07.136Z,27.799999999999997
2018-06-11T01:06:07.393Z,28.299999999999997
2018-06-11T01:08:07.517Z,27.799999999999997
2018-06-11T01:10:07.654Z,27.799999999999997
2018-06-11T01:12:07.620Z,27.200000000000003
2018-06-11T01:14:07.757Z,27.799999999999997
2018-06-11T01:16:07.881Z,28.299999999999997
2018-06-11T01:18:08.152Z,28.299999999999997
2018-06-11T01:20:08.145Z,27.799999999999997
2018-06-11T01:22:08.218Z,27.799999999999997
2018-06-11T01:24:08.332Z,27.799999999999997
2018-06-11T01:26:08.663Z,27.799999999999997
2018-06-11T01:28:08.791Z,28.299999999999997
2018-06-11T01:30:09.038Z,27.799999999999997
2018-06-11T01:32:08.930Z,27.799999999999997
2018-06-11T01:34:08.976Z,27.799999999999997
2018-06-11T01:36:09.409Z,27.799999999999997
2018-06-11T01:38:09.370Z,27.799999999999997
2018-06-11T01:40:09.519Z,28.299999999999997
2018-06-11T01:42:09.469Z,27.799999999999997
2018-06-11T01:44:09.779Z,27.200000000000003
2018-06-11T01:46:09.755Z,27.799999999999997
2018-06-11T01:48:10.066Z,28.299999999999997
2018-06-11T01:50:10.070Z,28.299999999999997
2018-06-11T01:52:10.194Z,27.799999999999997
2018-06-11T01:54:10.423Z,28.299999999999997
2018-06-11T01:56:10.534Z,28.299999999999997
2018-06-11T01:58:10.678Z,27.200000000000003
2018-06-11T02:00:11.002Z,27.200000000000003
2018-06-11T02:02:10.938Z,28.299999999999997
2018-06-11T02:04:11.087Z,28.299999999999997
2018-06-11T02:06:11.392Z,28.299999999999997
2018-06-11T02:08:11.505Z,28.299999999999997
2018-06-11T02:10:11.447Z,28.299999999999997
2018-06-11T02:12:11.905Z,28.299999999999997
2018-06-11T02:14:11.734Z,27.799999999999997
2018-06-11T02:16:11.831Z,27.799999999999997
2018-06-11T02:18:12.267Z,27.799999999999997
2018-06-11T02:20:12.085Z,28.299999999999997
2018-06-11T02:22:12.199Z,27.799999999999997
2018-06-11T02:24:12.484Z,27.799999999999997
2018-06-11T02:26:12.477Z,28.299999999999997
2018-06-11T02:28:12.580Z,28.299999999999997
2018-06-11T02:30:12.878Z,27.200000000000003
2018-06-11T02:32:12.984Z,27.799999999999997
2018-06-11T02:34:12.960Z,28.299999999999997
2018-06-11T02:36:13.377Z,27.200000000000003
2018-06-11T02:38:13.237Z,27.799999999999997
2018-06-11T02:40:13.556Z,27.799999999999997
2018-06-11T02:42:13.677Z,27.200000000000003
2018-06-11T02:44:13.941Z,27.799999999999997
2018-06-11T02:46:13.892Z,28.299999999999997
2018-06-11T02:48:14.028Z,27.799999999999997
2018-06-11T02:50:14.189Z,27.799999999999997
2018-06-11T02:52:14.426Z,28.299999999999997
2018-06-11T02:54:14.612Z,27.799999999999997
2018-06-11T02:56:14.684Z,27.799999999999997
2018-06-11T02:58:14.861Z,27.799999999999997
2018-06-11T03:00:15.190Z,27.799999999999997
2018-06-11T03:02:15.186Z,27.799999999999997
2018-06-11T03:04:15.319Z,27.200000000000003
2018-06-11T03:06:15.584Z,27.799999999999997
2018-06-11T03:08:15.662Z,28.299999999999997
2018-06-11T03:10:15.894Z,27.799999999999997
2018-06-11T03:12:16.113Z,27.799999999999997
2018-06-11T03:14:16.095Z,27.799999999999997
2018-06-11T03:16:16.203Z,27.799999999999997
2018-06-11T03:18:16.340Z,27.799999999999997
2018-06-11T03:20:16.473Z,28.299999999999997
2018-06-11T03:22:16.729Z,28.299999999999997
2018-06-11T03:24:17.046Z,28.299999999999997
2018-06-11T03:26:16.949Z,27.799999999999997
2018-06-11T03:28:17.398Z,28.299999999999997
2018-06-11T03:30:17.356Z,27.799999999999997
2018-06-11T03:32:17.463Z,27.799999999999997
2018-06-11T03:34:17.725Z,27.799999999999997
2018-06-11T03:36:17.705Z,27.200000000000003
2018-06-11T03:38:17.977Z,27.799999999999997
2018-06-11T03:40:18.009Z,27.799999999999997
2018-06-11T03:42:18.369Z,27.799999999999997
2018-06-11T03:44:18.201Z,27.799999999999997
2018-06-11T03:46:18.556Z,27.200000000000003
2018-06-11T03:48:18.792Z,28.299999999999997
2018-06-11T03:50:18.731Z,27.799999999999997
2018-06-11T03:52:18.803Z,28.299999999999997
2018-06-11T03:54:18.947Z,27.200000000000003
2018-06-11T03:56:19.024Z,27.799999999999997
2018-06-11T03:58:19.140Z,27.200000000000003
2018-06-11T04:00:19.590Z,27.200000000000003
2018-06-11T04:02:19.406Z,27.200000000000003
2018-06-11T04:04:19.508Z,28.299999999999997
2018-06-11T04:06:19.848Z,27.799999999999997
2018-06-11T04:08:20.021Z,27.799999999999997
2018-06-11T04:10:20.117Z,28.299999999999997
2018-06-11T04:12:20.407Z,27.799999999999997
2018-06-11T04:14:20.204Z,27.799999999999997
2018-06-11T04:16:20.323Z,27.799999999999997
2018-06-11T04:18:20.829Z,27.200000000000003
2018-06-11T04:20:20.765Z,27.200000000000003
2018-06-11T04:22:20.712Z,27.799999999999997
2018-06-11T04:24:20.909Z,27.799999999999997
2018-06-11T04:26:21.000Z,27.799999999999997
2018-06-11T04:28:21.081Z,27.799999999999997
2018-06-11T04:30:21.242Z,27.799999999999997
2018-06-11T04:32:21.372Z,27.799999999999997
2018-06-11T04:34:21.478Z,27.799999999999997
2018-06-11T04:36:21.784Z,27.799999999999997
2018-06-11T04:38:21.914Z,27.799999999999997
2018-06-11T04:40:22.024Z,27.799999999999997
2018-06-11T04:42:22.222Z,27.799999999999997
2018-06-11T04:44:22.187Z,27.799999999999997
2018-06-11T04:46:22.346Z,27.799999999999997
2018-06-11T04:48:22.467Z,27.200000000000003
2018-06-11T04:50:22.590Z,27.200000000000003
2018-06-11T04:52:22.742Z,28.299999999999997
2018-06-11T04:54:23.069Z,27.799999999999997
2018-06-11T04:56:23.170Z,27.799999999999997
2018-06-11T04:58:23.207Z,27.799999999999997
2018-06-11T05:00:23.610Z,27.799999999999997
2018-06-11T05:02:23.617Z,27.799999999999997
2018-06-11T05:04:23.574Z,27.799999999999997
2018-06-11T05:06:24.004Z,27.799999999999997
2018-06-11T05:08:23.810Z,27.799999999999997
2018-06-11T05:10:23.950Z,27.799999999999997
2018-06-11T05:12:24.217Z,27.799999999999997
2018-06-11T05:14:24.157Z,27.799999999999997
2018-06-11T05:16:24.296Z,27.799999999999997
2018-06-11T05:18:24.683Z,28.299999999999997
2018-06-11T05:20:24.560Z,27.799999999999997
2018-06-11T05:22:24.816Z,27.799999999999997
2018-06-11T05:24:24.930Z,27.799999999999997
2018-06-11T05:26:25.081Z,28.299999999999997
2018-06-11T05:28:25.187Z,27.799999999999997
2018-06-11T05:30:25.351Z,28.299999999999997
2018-06-11T05:32:25.454Z,27.799999999999997
2018-06-11T05:34:25.711Z,27.799999999999997
2018-06-11T05:36:26.033Z,27.799999999999997
2018-06-11T05:38:25.811Z,27.799999999999997
2018-06-11T05:40:26.239Z,28.299999999999997
2018-06-11T05:42:26.220Z,27.799999999999997
2018-06-11T05:44:26.180Z,28.299999999999997
2018-06-11T05:46:26.326Z,27.799999999999997
2018-06-11T05:48:26.482Z,27.799999999999997
2018-06-11T05:50:26.655Z,27.799999999999997
2018-06-11T05:52:26.859Z,27.200000000000003
2018-06-11T05:54:26.979Z,27.799999999999997
2018-06-11T05:56:27.136Z,27.200000000000003
2018-06-11T05:58:27.103Z,27.200000000000003
2018-06-11T06:00:27.215Z,27.799999999999997
2018-06-11T06:02:27.311Z,27.799999999999997
2018-06-11T06:04:27.437Z,27.799999999999997
2018-06-11T06:06:27.781Z,27.200000000000003
2018-06-11T06:08:27.885Z,27.799999999999997
2018-06-11T06:10:27.805Z,27.799999999999997
2018-06-11T06:19:04.176Z,27.799999999999997
2018-06-11T06:22:07.869Z,27.799999999999997
2018-06-11T06:24:07.932Z,27.799999999999997
2018-06-11T06:26:08.100Z,28.299999999999997
2018-06-11T06:28:08.046Z,28.299999999999997
2018-06-11T06:30:08.407Z,27.799999999999997
2018-06-11T06:32:08.290Z,27.200000000000003
2018-06-11T06:34:08.520Z,27.799999999999997
2018-06-11T06:36:08.728Z,28.299999999999997
2018-06-11T06:38:08.913Z,27.799999999999997
2018-06-11T06:40:09.025Z,27.799999999999997
2018-06-11T06:42:09.182Z,27.799999999999997
2018-06-11T06:44:09.322Z,28.299999999999997
2018-06-11T06:46:09.510Z,28.299999999999997
2018-06-11T06:48:09.442Z,27.200000000000003
2018-06-11T06:50:09.821Z,28.299999999999997
2018-06-11T06:52:09.850Z,28.299999999999997
2018-06-11T06:54:10.141Z,27.799999999999997
2018-06-11T06:56:10.190Z,27.799999999999997
2018-06-11T06:58:10.402Z,28.299999999999997
2018-06-11T07:00:10.704Z,27.799999999999997
2018-06-11T07:02:10.733Z,27.799999999999997
2018-06-11T07:04:10.920Z,28.299999999999997
2018-06-11T07:06:11.228Z,27.799999999999997
2018-06-11T07:08:11.433Z,27.799999999999997
2018-06-11T07:10:11.602Z,27.799999999999997
2018-06-11T07:12:11.580Z,27.799999999999997
2018-06-11T07:14:11.757Z,27.799999999999997
2018-06-11T07:16:12.136Z,27.200000000000003
2018-06-11T07:18:12.202Z,27.799999999999997
2018-06-11T07:20:12.213Z,27.799999999999997
2018-06-11T07:22:12.444Z,27.799999999999997
2018-06-11T07:24:12.523Z,28.299999999999997
2018-06-11T07:26:12.814Z,28.299999999999997
2018-06-11T07:28:12.849Z,27.799999999999997
2018-06-11T07:30:16.577Z,27.799999999999997
2018-06-11T07:32:13.128Z,27.799999999999997
2018-06-11T07:34:13.465Z,27.799999999999997
2018-06-11T07:36:13.468Z,27.200000000000003
2018-06-11T07:38:13.876Z,28.299999999999997
2018-06-11T07:40:14.124Z,28.299999999999997
2018-06-11T07:42:14.306Z,27.799999999999997
2018-06-11T07:44:14.612Z,27.799999999999997
2018-06-11T07:46:14.468Z,28.299999999999997
2018-06-11T07:48:14.805Z,28.299999999999997
2018-06-11T07:50:14.959Z,28.299999999999997
2018-06-11T07:52:14.964Z,27.799999999999997
2018-06-11T07:54:15.177Z,28.299999999999997
2018-06-11T07:56:15.440Z,27.200000000000003
2018-06-11T07:58:15.562Z,27.799999999999997
2018-06-11T08:00:15.807Z,27.799999999999997
2018-06-11T08:02:16.195Z,27.799999999999997
2018-06-11T08:04:16.216Z,28.299999999999997
2018-06-11T08:06:16.355Z,28.299999999999997
2018-06-11T08:08:16.733Z,27.799999999999997
2018-06-11T08:10:16.879Z,28.299999999999997
2018-06-11T08:12:17.052Z,27.799999999999997
2018-06-11T08:14:17.219Z,28.299999999999997
2018-06-11T08:16:17.476Z,27.799999999999997
2018-06-11T08:18:17.541Z,27.799999999999997
2018-06-11T08:20:17.636Z,27.799999999999997
2018-06-11T08:22:17.789Z,27.799999999999997
2018-06-11T08:24:17.881Z,27.200000000000003
2018-06-11T08:26:18.154Z,27.799999999999997
2018-06-11T08:28:18.344Z,27.799999999999997
2018-06-11T08:30:18.357Z,27.799999999999997
2018-06-11T08:32:18.445Z,27.200000000000003
2018-06-11T08:34:18.603Z,28.299999999999997
2018-06-11T08:36:18.866Z,27.799999999999997
2018-06-11T08:38:18.978Z,27.799999999999997
2018-06-11T08:40:18.982Z,27.799999999999997
2018-06-11T08:42:19.107Z,27.799999999999997
2018-06-11T08:44:19.373Z,28.299999999999997
2018-06-11T08:46:19.758Z,27.200000000000003
2018-06-11T08:48:19.863Z,27.200000000000003
2018-06-11T08:50:19.801Z,27.799999999999997
2018-06-11T08:52:20.112Z,27.200000000000003
2018-06-11T08:54:20.193Z,27.200000000000003
2018-06-11T08:56:20.311Z,27.799999999999997
2018-06-11T08:58:20.346Z,27.799999999999997
2018-06-11T09:00:20.605Z,27.799999999999997
2018-06-11T09:02:20.569Z,27.200000000000003
2018-06-11T09:04:20.732Z,27.200000000000003
2018-06-11T09:06:20.832Z,27.200000000000003
2018-06-11T09:08:20.968Z,27.200000000000003
2018-06-11T09:10:21.097Z,27.200000000000003
2018-06-11T09:12:21.216Z,27.200000000000003
2018-06-11T09:14:21.415Z,27.799999999999997
2018-06-11T09:16:21.832Z,27.200000000000003
2018-06-11T09:18:21.996Z,27.200000000000003
2018-06-11T09:20:21.751Z,27.799999999999997
2018-06-11T09:22:21.871Z,27.200000000000003
2018-06-11T09:24:22.141Z,27.799999999999997
2018-06-11T09:26:22.515Z,27.799999999999997
2018-06-11T09:28:22.335Z,27.799999999999997
2018-06-11T09:30:22.466Z,27.200000000000003
2018-06-11T09:32:22.585Z,27.799999999999997
2018-06-11T09:34:22.742Z,27.799999999999997
2018-06-11T09:36:22.914Z,27.799999999999997
2018-06-11T09:38:23.337Z,27.799999999999997
2018-06-11T09:40:23.225Z,27.200000000000003
2018-06-11T09:42:23.342Z,27.200000000000003
2018-06-11T09:44:23.473Z,27.200000000000003
2018-06-11T09:46:23.584Z,27.799999999999997
2018-06-11T09:48:23.833Z,27.200000000000003
2018-06-11T09:50:23.834Z,27.200000000000003
2018-06-11T09:52:24.113Z,27.200000000000003
2018-06-11T09:54:24.252Z,27.200000000000003
2018-06-11T09:56:24.373Z,27.200000000000003
2018-06-11T09:58:24.339Z,27.200000000000003
2018-06-11T10:00:24.483Z,27.799999999999997
2018-06-11T10:02:24.615Z,26.700000000000003
2018-06-11T10:04:25.156Z,27.200000000000003
2018-06-11T10:06:24.833Z,27.200000000000003
2018-06-11T10:08:25.139Z,27.200000000000003
2018-06-11T10:10:25.097Z,27.200000000000003
2018-06-11T10:12:25.332Z,27.799999999999997
2018-06-11T10:14:25.369Z,28.299999999999997
2018-06-11T10:16:25.639Z,27.799999999999997
2018-06-11T10:18:25.818Z,27.200000000000003
2018-06-11T10:20:25.870Z,27.200000000000003
2018-06-11T10:22:26.254Z,27.799999999999997
2018-06-11T10:24:26.149Z,27.799999999999997
2018-06-11T10:26:26.297Z,27.200000000000003
2018-06-11T10:28:26.552Z,27.799999999999997
2018-06-11T10:30:26.679Z,27.799999999999997
2018-06-11T10:32:26.670Z,27.799999999999997
2018-06-11T10:34:27.058Z,27.799999999999997
2018-06-11T10:36:27.046Z,27.200000000000003
2018-06-11T10:38:27.199Z,27.799999999999997
2018-06-11T10:40:27.643Z,28.299999999999997
2018-06-11T10:42:27.721Z,27.200000000000003
2018-06-11T10:44:27.740Z,27.200000000000003
2018-06-11T10:46:28.011Z,27.799999999999997
2018-06-11T10:48:28.090Z,28.299999999999997
2018-06-11T10:50:28.448Z,27.200000000000003
2018-06-11T10:52:28.542Z,27.200000000000003
2018-06-11T10:54:28.518Z,27.200000000000003
2018-06-11T10:56:28.953Z,27.200000000000003
2018-06-11T10:58:29.105Z,27.200000000000003
2018-06-11T11:00:29.548Z,27.200000000000003
2018-06-11T11:02:29.375Z,27.200000000000003
2018-06-11T11:04:29.599Z,27.200000000000003
2018-06-11T11:06:29.500Z,27.200000000000003
2018-06-11T11:08:29.796Z,27.799999999999997
2018-06-11T11:10:30.509Z,27.799999999999997
2018-06-11T11:12:30.137Z,27.200000000000003
2018-06-11T11:14:30.296Z,27.799999999999997
2018-06-11T11:16:30.338Z,27.799999999999997
2018-06-11T11:18:30.683Z,27.200000000000003
2018-06-11T11:20:30.971Z,27.799999999999997
2018-06-11T11:22:30.889Z,27.799999999999997
2018-06-11T11:24:31.019Z,27.799999999999997
2018-06-11T11:26:31.137Z,27.200000000000003
2018-06-11T11:28:31.491Z,27.200000000000003
2018-06-11T11:30:31.592Z,28.299999999999997
2018-06-11T11:32:31.649Z,27.799999999999997
2018-06-11T11:34:31.701Z,28.299999999999997
2018-06-11T11:36:31.855Z,27.799999999999997
2018-06-11T11:38:32.019Z,28.299999999999997
2018-06-11T11:40:32.155Z,28.299999999999997
2018-06-11T11:42:32.284Z,28.299999999999997
2018-06-11T11:44:32.413Z,28.299999999999997
2018-06-11T11:46:32.597Z,27.799999999999997
2018-06-11T11:48:32.848Z,27.799999999999997
2018-06-11T11:50:33.018Z,27.200000000000003
2018-06-11T11:52:33.197Z,27.799999999999997
2018-06-11T11:54:33.256Z,27.200000000000003
2018-06-11T11:56:33.452Z,27.799999999999997
2018-06-11T11:58:33.624Z,27.200000000000003
2018-06-11T12:00:33.664Z,27.799999999999997
2018-06-11T12:02:33.917Z,27.799999999999997
2018-06-11T12:04:34.213Z,27.200000000000003
2018-06-11T12:06:34.327Z,27.200000000000003
2018-06-11T12:08:34.266Z,27.200000000000003
2018-06-11T12:10:34.432Z,26.700000000000003
2018-06-11T12:12:34.556Z,27.200000000000003
2018-06-11T12:14:34.625Z,27.200000000000003
2018-06-11T12:16:34.825Z,27.200000000000003
2018-06-11T12:18:34.964Z,27.200000000000003
2018-06-11T12:20:35.269Z,27.200000000000003
2018-06-11T12:22:35.204Z,26.200000000000003
2018-06-11T12:24:35.529Z,27.200000000000003
2018-06-11T12:26:35.648Z,27.200000000000003
2018-06-11T12:28:35.840Z,27.200000000000003
2018-06-11T12:30:35.845Z,26.700000000000003
2018-06-11T12:32:35.830Z,26.700000000000003
2018-06-11T12:34:35.952Z,26.700000000000003
2018-06-11T12:36:36.227Z,27.200000000000003
2018-06-11T12:38:36.491Z,26.700000000000003
2018-06-11T12:40:36.363Z,26.700000000000003
2018-06-11T12:42:36.480Z,26.200000000000003
2018-06-11T12:44:36.781Z,26.700000000000003
2018-06-11T12:46:36.868Z,27.200000000000003
2018-06-11T12:48:37.005Z,26.200000000000003
2018-06-11T12:50:37.113Z,26.200000000000003
2018-06-11T12:52:37.406Z,26.700000000000003
2018-06-11T12:54:37.549Z,27.200000000000003
2018-06-11T12:56:37.468Z,26.200000000000003
2018-06-11T12:58:37.627Z,26.200000000000003
2018-06-11T13:00:37.885Z,26.200000000000003
2018-06-11T13:02:38.154Z,26.200000000000003
2018-06-11T13:04:38.323Z,25.6
2018-06-11T13:06:38.540Z,26.200000000000003
2018-06-11T13:08:38.480Z,26.700000000000003
2018-06-11T13:10:38.644Z,27.200000000000003
2018-06-11T13:12:38.756Z,26.700000000000003
2018-06-11T13:14:38.867Z,27.200000000000003
2018-06-11T13:16:39.141Z,27.200000000000003
2018-06-11T13:18:39.257Z,26.700000000000003
2018-06-11T13:20:39.648Z,27.200000000000003
2018-06-11T13:22:39.516Z,27.200000000000003
2018-06-11T13:24:39.669Z,26.200000000000003
2018-06-11T13:26:39.609Z,27.799999999999997
2018-06-11T13:28:39.978Z,27.200000000000003
2018-06-11T13:30:40.110Z,27.200000000000003
2018-06-11T13:32:40.169Z,27.200000000000003
2018-06-11T13:34:40.192Z,27.200000000000003
2018-06-11T13:36:40.612Z,27.799999999999997
2018-06-11T13:38:40.736Z,27.200000000000003
2018-06-11T13:40:40.540Z,27.200000000000003
2018-06-11T13:42:40.724Z,27.799999999999997
2018-06-11T13:44:41.061Z,27.799999999999997
2018-06-11T13:46:41.095Z,27.799999999999997
2018-06-11T13:48:41.064Z,27.799999999999997
2018-06-11T13:50:41.364Z,28.299999999999997
2018-06-11T13:52:41.499Z,27.799999999999997
2018-06-11T13:54:41.470Z,27.799999999999997
2018-06-11T13:56:41.547Z,28.299999999999997
2018-06-11T13:58:41.698Z,27.799999999999997
2018-06-11T14:00:41.998Z,28.299999999999997
2018-06-11T14:02:42.080Z,28.299999999999997
2018-06-11T14:04:42.040Z,28.299999999999997
2018-06-11T14:06:42.344Z,28.299999999999997
2018-06-11T14:08:42.478Z,27.799999999999997
2018-06-11T14:10:42.576Z,28.299999999999997
2018-06-11T14:12:42.546Z,27.799999999999997
2018-06-11T14:14:42.825Z,28.299999999999997
2018-06-11T14:16:42.959Z,27.799999999999997
2018-06-11T14:18:43.321Z,28.299999999999997
2018-06-11T14:20:43.073Z,28.299999999999997
2018-06-11T14:22:43.324Z,28.299999999999997
2018-06-11T14:24:43.444Z,27.799999999999997
2018-06-11T14:26:43.387Z,27.799999999999997
2018-06-11T14:28:43.599Z,27.799999999999997
2018-06-11T14:30:43.824Z,27.799999999999997
2018-06-11T14:32:43.862Z,27.799999999999997
2018-06-11T14:34:44.005Z,28.299999999999997
2018-06-11T14:36:44.219Z,28.299999999999997
2018-06-11T14:38:44.204Z,27.799999999999997
2018-06-11T14:40:45.002Z,28.299999999999997
2018-06-11T14:42:44.598Z,28.299999999999997
2018-06-11T14:44:44.750Z,28.299999999999997
2018-06-11T14:46:45.044Z,27.799999999999997
2018-06-11T14:48:45.211Z,27.799999999999997
2018-06-11T14:50:45.312Z,28.299999999999997
2018-06-11T14:52:45.651Z,28.299999999999997
2018-06-11T14:54:45.421Z,27.799999999999997
2018-06-11T14:56:45.984Z,28.299999999999997
2018-06-11T14:58:45.889Z,28.299999999999997
2018-06-11T15:00:46.048Z,28.299999999999997
2018-06-11T15:02:46.219Z,28.299999999999997
2018-06-11T15:04:46.505Z,28.299999999999997
2018-06-11T15:06:46.672Z,27.799999999999997
2018-06-11T15:08:47.016Z,28.299999999999997
2018-06-11T15:10:46.902Z,28.299999999999997
2018-06-11T15:12:46.628Z,28.299999999999997
2018-06-11T15:14:47.179Z,27.799999999999997
2018-06-11T15:16:47.523Z,28.299999999999997
2018-06-11T15:18:47.765Z,28.299999999999997
2018-06-11T15:20:47.545Z,28.299999999999997
2018-06-11T15:22:47.439Z,28.299999999999997
2018-06-11T15:24:47.742Z,28.299999999999997
2018-06-11T15:26:47.960Z,28.299999999999997
2018-06-11T15:28:47.982Z,28.299999999999997
2018-06-11T15:30:48.074Z,28.299999999999997
2018-06-11T15:32:48.124Z,28.299999999999997
2018-06-11T15:34:48.745Z,28.299999999999997
2018-06-11T15:36:48.197Z,28.299999999999997
2018-06-11T15:38:48.710Z,28.299999999999997
2018-06-11T15:40:48.680Z,28.299999999999997
2018-06-11T15:42:48.927Z,28.299999999999997
2018-06-11T15:44:49.941Z,28.299999999999997
2018-06-11T15:46:49.013Z,28.299999999999997
2018-06-11T15:48:49.239Z,28.9
2018-06-11T15:50:49.244Z,28.299999999999997
2018-06-11T15:52:49.487Z,28.299999999999997
2018-06-11T15:54:49.628Z,28.299999999999997
2018-06-11T15:56:49.921Z,27.799999999999997
2018-06-11T15:58:49.775Z,28.299999999999997
2018-06-11T16:00:49.890Z,28.299999999999997
2018-06-11T16:02:50.173Z,28.299999999999997
2018-06-11T16:04:50.304Z,28.299999999999997
2018-06-11T16:06:50.457Z,28.9
2018-06-11T16:08:50.653Z,28.299999999999997
2018-06-11T16:10:50.547Z,28.9
2018-06-11T16:12:50.749Z,28.299999999999997
2018-06-11T16:14:50.964Z,28.9
2018-06-11T16:16:50.956Z,29.4
2018-06-11T16:18:51.096Z,28.9
2018-06-11T16:20:51.256Z,28.299999999999997
2018-06-11T16:22:51.572Z,29.9
2018-06-11T16:24:51.795Z,28.299999999999997
2018-06-11T16:26:51.843Z,28.299999999999997
2018-06-11T16:28:52.421Z,28.299999999999997
2018-06-11T16:30:52.335Z,28.299999999999997
2018-06-11T16:32:52.443Z,28.9
2018-06-11T16:34:52.395Z,28.299999999999997
2018-06-11T16:36:52.759Z,28.299999999999997
2018-06-11T16:38:52.757Z,28.299999999999997
2018-06-11T16:40:53.043Z,28.299999999999997
2018-06-11T16:42:53.148Z,28.299999999999997
2018-06-11T16:44:53.280Z,28.9
2018-06-11T16:46:53.745Z,28.299999999999997
2018-06-11T16:48:53.795Z,28.299999999999997
2018-06-11T16:50:54.033Z,28.9
2018-06-11T16:52:54.013Z,28.299999999999997
2018-06-11T16:54:54.235Z,28.299999999999997
2018-06-11T16:56:54.106Z,28.9
2018-06-11T16:58:54.575Z,28.299999999999997
2018-06-11T17:00:54.358Z,28.299999999999997
2018-06-11T17:02:54.673Z,28.9
2018-06-11T17:04:54.602Z,28.9
2018-06-11T17:06:55.033Z,28.299999999999997
2018-06-11T17:08:54.978Z,28.9
2018-06-11T17:10:55.279Z,28.299999999999997
2018-06-11T17:12:55.414Z,28.299999999999997
2018-06-11T17:14:55.409Z,29.4
2018-06-11T17:16:55.397Z,28.299999999999997
2018-06-11T17:18:56.066Z,28.299999999999997
2018-06-11T17:20:56.066Z,28.9
2018-06-11T17:22:56.078Z,28.299999999999997
2018-06-11T17:24:56.172Z,28.9
2018-06-11T17:26:56.157Z,28.9
2018-06-11T17:28:56.113Z,28.299999999999997
2018-06-11T17:30:56.539Z,28.9
2018-06-11T17:32:56.539Z,28.9
2018-06-11T17:34:56.614Z,28.299999999999997
2018-06-11T17:36:57.021Z,28.299999999999997
2018-06-11T17:38:56.778Z,28.299999999999997
2018-06-11T17:40:56.875Z,28.299999999999997
2018-06-11T17:42:57.185Z,28.299999999999997
2018-06-11T17:44:57.315Z,29.4
2018-06-11T17:46:57.511Z,29.4
2018-06-11T17:48:57.672Z,28.9
2018-06-11T17:50:57.784Z,29.4
2018-06-11T17:52:57.905Z,29.4
2018-06-11T17:54:58.067Z,29.4
2018-06-11T17:56:58.067Z,28.9
2018-06-11T17:58:58.387Z,29.4
2018-06-11T18:00:58.713Z,28.299999999999997
2018-06-11T18:02:58.405Z,28.299999999999997
2018-06-11T18:04:58.613Z,29.4
2018-06-11T18:06:58.830Z,29.4
2018-06-11T18:08:58.972Z,28.9
2018-06-11T18:10:59.134Z,28.9
2018-06-11T18:12:59.387Z,28.9
2018-06-11T18:14:59.248Z,29.4
2018-06-11T18:16:59.531Z,28.299999999999997
2018-06-11T18:18:59.785Z,28.9
2018-06-11T18:20:59.711Z,28.299999999999997
2018-06-11T18:22:59.726Z,28.9
2018-06-11T18:24:59.821Z,28.9
2018-06-11T18:27:00.155Z,28.9
2018-06-11T18:29:00.271Z,28.9
2018-06-11T18:31:00.681Z,28.9
2018-06-11T18:33:00.636Z,28.299999999999997
2018-06-11T18:35:00.615Z,28.9
2018-06-11T18:37:00.855Z,28.299999999999997
2018-06-11T18:39:00.984Z,29.4
2018-06-11T18:41:01.228Z,28.9
2018-06-11T18:43:01.379Z,28.299999999999997
2018-06-11T18:45:01.466Z,28.9